Time;durP1;ratioP1;P1;durP2;ratioP2;P2;SDS_P1;SDS_P2;PMS_P1;PMS_P2;Temp;Humidity;BMP_temperature;BMP_pressure;BME280_temperature;BME280_humidity;BME280_pressure;Samples;Min_cycle;Max_cycle;Signal;HPM_P1;HPM_P2
2023/04/11 00:01:59;;;;;;;3.90;1.20;;;9.80;99.90;;;;;;5060407;28;20598;-78
2023/04/11 00:04:25;;;;;;;2.80;1.07;;;9.80;99.90;;;;;;5058304;28;20270;-79
2023/04/11 00:06:50;;;;;;;4.13;1.20;;;9.80;99.90;;;;;;5060971;28;20226;-79
2023/04/11 00:09:16;;;;;;;2.23;0.80;;;9.80;99.90;;;;;;5059810;28;20186;-79
2023/04/11 00:11:42;;;;;;;3.53;1.10;;;9.80;99.90;;;;;;5065120;28;20202;-79
2023/04/11 00:14:08;;;;;;;2.87;1.23;;;9.80;99.90;;;;;;5076845;28;20202;-78
2023/04/11 00:16:34;;;;;;;5.03;1.80;;;9.80;99.90;;;;;;5076635;28;20543;-78
2023/04/11 00:19:00;;;;;;;4.83;1.37;;;9.80;99.90;;;;;;5059205;28;20183;-79
2023/04/11 00:21:25;;;;;;;3.23;1.07;;;9.80;99.90;;;;;;5058246;28;20183;-79
2023/04/11 00:23:52;;;;;;;5.83;1.53;;;9.80;99.90;;;;;;5057975;28;20513;-78
2023/04/11 00:26:18;;;;;;;5.77;1.20;;;9.80;99.90;;;;;;5057808;28;20211;-79
2023/04/11 00:28:44;;;;;;;3.33;1.57;;;9.80;99.90;;;;;;5056278;28;20183;-79
2023/04/11 00:31:11;;;;;;;4.33;1.43;;;9.80;99.90;;;;;;5058305;28;20235;-78
2023/04/11 00:33:36;;;;;;;4.53;1.30;;;9.80;99.90;;;;;;5056816;28;20234;-79
2023/04/11 00:36:02;;;;;;;5.90;1.63;;;9.80;99.90;;;;;;5057568;28;20555;-78
2023/04/11 00:38:28;;;;;;;4.73;1.27;;;9.90;99.90;;;;;;5056127;28;20187;-78
2023/04/11 00:40:53;;;;;;;5.47;1.40;;;9.90;99.90;;;;;;5057774;28;20250;-79
2023/04/11 00:43:19;;;;;;;4.60;1.40;;;9.90;99.90;;;;;;5057625;28;20214;-79
2023/04/11 00:45:44;;;;;;;8.80;1.40;;;9.90;99.90;;;;;;5057156;28;20313;-78
2023/04/11 00:48:10;;;;;;;5.63;1.57;;;9.90;99.90;;;;;;5058278;28;20255;-78
2023/04/11 00:50:40;;;;;;;3.03;1.40;;;9.90;99.90;;;;;;5056749;28;20206;-78
2023/04/11 00:53:05;;;;;;;3.20;1.33;;;9.90;99.90;;;;;;5058095;28;20187;-78
2023/04/11 00:55:31;;;;;;;7.67;1.40;;;9.90;99.90;;;;;;5058092;28;20172;-78
2023/04/11 00:57:57;;;;;;;4.13;1.47;;;10.00;99.90;;;;;;5057949;28;20168;-82
2023/04/11 01:00:23;;;;;;;4.63;1.20;;;10.00;99.90;;;;;;5057702;28;20198;-79
2023/04/11 01:02:49;;;;;;;5.53;1.80;;;10.00;99.90;;;;;;5059668;28;20211;-78
2023/04/11 01:05:16;;;;;;;6.83;1.50;;;10.00;99.90;;;;;;5058442;28;20177;-78
2023/04/11 01:07:43;;;;;;;8.27;2.00;;;10.00;99.90;;;;;;5066471;28;20212;-79
2023/04/11 01:10:10;;;;;;;9.47;1.90;;;10.00;99.90;;;;;;5067644;28;20194;-78
2023/04/11 01:12:37;;;;;;;10.90;2.23;;;10.10;99.90;;;;;;5056244;28;20393;-81
2023/04/11 01:15:04;;;;;;;7.23;2.00;;;10.10;99.90;;;;;;5055917;28;20172;-80
2023/04/11 01:17:31;;;;;;;14.87;2.30;;;10.10;99.90;;;;;;5055008;28;20551;-79
2023/04/11 01:19:57;;;;;;;8.73;2.57;;;10.30;99.90;;;;;;5056686;28;20168;-80
2023/04/11 01:22:24;;;;;;;7.20;2.20;;;10.20;99.90;;;;;;5058641;28;20254;-79
2023/04/11 01:24:50;;;;;;;10.17;2.50;;;10.20;99.90;;;;;;5059860;28;20182;-79
2023/04/11 01:27:16;;;;;;;9.73;2.63;;;10.20;99.90;;;;;;5061037;28;20251;-78
2023/04/11 01:29:41;;;;;;;6.10;1.70;;;10.20;99.90;;;;;;5059401;28;20191;-79
2023/04/11 01:32:07;;;;;;;8.90;2.90;;;10.20;99.90;;;;;;5059770;28;20646;-79
2023/04/11 01:34:34;;;;;;;12.73;2.90;;;10.20;99.90;;;;;;5061231;28;20175;-79
2023/04/11 01:37:00;;;;;;;13.87;2.37;;;10.20;99.90;;;;;;5061082;28;20176;-79
2023/04/11 01:39:26;;;;;;;12.13;2.57;;;10.20;99.90;;;;;;5060379;28;20519;-79
2023/04/11 01:41:53;;;;;;;17.80;3.87;;;10.20;99.90;;;;;;5060538;28;20270;-79
2023/04/11 01:44:19;;;;;;;13.73;5.47;;;10.30;99.90;;;;;;5060724;28;20592;-79
2023/04/11 01:46:45;;;;;;;6.87;2.33;;;10.30;99.90;;;;;;5059670;28;20207;-79
2023/04/11 01:49:17;;;;;;;8.77;2.87;;;10.20;99.90;;;;;;5060848;28;20168;-79
2023/04/11 01:51:43;;;;;;;16.93;3.73;;;10.20;99.90;;;;;;5059071;28;20641;-79
2023/04/11 01:54:09;;;;;;;9.57;2.77;;;10.10;99.90;;;;;;5059416;28;20246;-79
2023/04/11 01:56:34;;;;;;;9.73;2.80;;;10.10;99.90;;;;;;5060861;28;20636;-79
2023/04/11 01:59:00;;;;;;;15.20;2.67;;;10.10;99.90;;;;;;5061213;28;20175;-79
2023/04/11 02:01:26;;;;;;;10.97;2.87;;;10.10;99.90;;;;;;5060784;28;20172;-78
2023/04/11 02:03:52;;;;;;;10.40;3.10;;;10.10;99.90;;;;;;5059717;28;20200;-80
2023/04/11 02:06:17;;;;;;;11.90;2.57;;;10.10;99.90;;;;;;5061570;28;20203;-79
2023/04/11 02:08:43;;;;;;;10.30;2.40;;;10.10;99.90;;;;;;5062094;28;20214;-79
2023/04/11 02:11:09;;;;;;;14.47;3.13;;;10.10;99.90;;;;;;5060043;28;20552;-79
2023/04/11 02:13:35;;;;;;;13.97;3.47;;;10.00;99.90;;;;;;5060576;28;20195;-79
2023/04/11 02:16:06;;;;;;;19.63;3.90;;;10.00;99.90;;;;;;5059762;28;20739;-79
2023/04/11 02:18:31;;;;;;;14.37;3.33;;;9.90;99.90;;;;;;5059253;28;20194;-79
2023/04/11 02:20:57;;;;;;;17.20;3.50;;;9.90;99.90;;;;;;5060469;28;20543;-79
2023/04/11 02:23:22;;;;;;;18.73;3.73;;;9.90;99.90;;;;;;5059428;28;20270;-79
2023/04/11 02:25:48;;;;;;;20.87;3.13;;;9.90;99.90;;;;;;5059017;28;20203;-79
2023/04/11 02:28:13;;;;;;;16.43;3.23;;;9.90;99.90;;;;;;5060349;28;20259;-79
2023/04/11 02:30:39;;;;;;;13.90;3.50;;;9.80;99.90;;;;;;5058556;28;20214;-80
2023/04/11 02:33:05;;;;;;;19.63;3.43;;;9.80;99.90;;;;;;5058150;28;20238;-80
2023/04/11 02:35:30;;;;;;;19.63;4.13;;;9.80;99.90;;;;;;5061482;28;20171;-79
2023/04/11 02:37:56;;;;;;;15.23;3.23;;;9.70;99.90;;;;;;5060954;28;20178;-79
2023/04/11 02:40:21;;;;;;;16.00;3.60;;;9.80;99.90;;;;;;5061417;28;20229;-79
2023/04/11 02:42:47;;;;;;;12.97;3.10;;;9.80;99.90;;;;;;5059517;28;20216;-81
2023/04/11 02:45:12;;;;;;;15.50;3.53;;;9.70;99.90;;;;;;5061394;28;20598;-79
2023/04/11 02:47:38;;;;;;;13.00;2.67;;;9.80;99.90;;;;;;5060624;28;20585;-80
2023/04/11 02:50:04;;;;;;;15.80;2.80;;;9.80;99.90;;;;;;5059456;28;20193;-80
2023/04/11 02:52:32;;;;;;;17.93;3.13;;;9.70;99.90;;;;;;5061133;28;20198;-79
2023/04/11 02:54:58;;;;;;;15.53;3.70;;;9.70;99.90;;;;;;5060686;28;20171;-79
2023/04/11 02:57:23;;;;;;;16.53;3.37;;;9.70;99.90;;;;;;5060934;28;20183;-79
2023/04/11 02:59:49;;;;;;;13.63;3.07;;;9.70;99.90;;;;;;5061054;28;20679;-79
2023/04/11 03:02:15;;;;;;;14.50;3.80;;;9.70;99.90;;;;;;5060211;28;20195;-79
2023/04/11 03:04:40;;;;;;;12.07;3.07;;;9.70;99.90;;;;;;5060774;28;20602;-80
2023/04/11 03:07:06;;;;;;;13.33;4.03;;;9.60;99.90;;;;;;5061182;28;20214;-80
2023/04/11 03:09:32;;;;;;;15.13;3.67;;;9.70;94.40;;;;;;5061963;28;20217;-80
2023/04/11 03:11:57;;;;;;;20.60;4.03;;;9.70;98.70;;;;;;5060418;28;20187;-79
2023/04/11 03:14:23;;;;;;;11.80;3.20;;;9.60;74.20;;;;;;5061725;28;20633;-80
2023/04/11 03:16:48;;;;;;;15.57;3.97;;;9.70;29.50;;;;;;5064137;28;20705;-79
2023/04/11 03:19:14;;;;;;;18.60;4.17;;;9.70;15.40;;;;;;5062742;28;20180;-79
2023/04/11 03:21:39;;;;;;;9.60;3.13;;;9.60;1.00;;;;;;5063595;28;20218;-80
2023/04/11 03:24:05;;;;;;;17.40;3.17;;;9.60;1.00;;;;;;5062598;28;20200;-79
2023/04/11 03:26:31;;;;;;;23.10;3.63;;;9.60;9.10;;;;;;5060357;28;20289;-80
2023/04/11 03:28:57;;;;;;;19.83;4.13;;;9.60;3.70;;;;;;5061718;28;20199;-80
2023/04/11 03:31:23;;;;;;;12.23;3.80;;;9.60;1.00;;;;;;5064267;28;20167;-80
2023/04/11 03:33:48;;;;;;;19.43;4.50;;;9.60;1.00;;;;;;5068707;28;20192;-80
2023/04/11 03:36:14;;;;;;;17.60;4.37;;;9.50;1.00;;;;;;5064663;28;20175;-80
2023/04/11 03:38:39;;;;;;;11.77;3.70;;;9.50;1.00;;;;;;5059622;28;20187;-80
2023/04/11 03:41:05;;;;;;;18.03;3.73;;;9.60;1.00;;;;;;5060481;28;20318;-79
2023/04/11 03:43:31;;;;;;;19.90;4.33;;;9.50;20.70;;;;;;5060213;28;20248;-80
2023/04/11 03:45:56;;;;;;;16.37;3.63;;;9.50;14.00;;;;;;5058917;28;20207;-80
2023/04/11 03:48:25;;;;;;;11.20;2.53;;;9.50;9.40;;;;;;5060047;28;20580;-79
2023/04/11 03:50:51;;;;;;;13.80;3.83;;;9.50;4.20;;;;;;5058393;28;20233;-80
2023/04/11 03:53:17;;;;;;;11.23;3.17;;;9.50;27.80;;;;;;5058813;28;20196;-81
2023/04/11 03:55:42;;;;;;;14.73;3.53;;;9.40;32.20;;;;;;5060093;28;20515;-79
2023/04/11 03:58:08;;;;;;;17.50;3.60;;;9.40;55.30;;;;;;5059607;28;20309;-80
2023/04/11 04:00:33;;;;;;;19.10;4.23;;;9.50;66.10;;;;;;5058478;28;20210;-80
2023/04/11 04:02:59;;;;;;;17.07;4.50;;;9.40;52.80;;;;;;5060036;28;20203;-80
2023/04/11 04:05:24;;;;;;;18.10;4.20;;;9.50;20.10;;;;;;5058047;28;20171;-80
2023/04/11 04:07:50;;;;;;;15.10;4.13;;;9.40;31.50;;;;;;5059422;28;20199;-80
2023/04/11 04:10:15;;;;;;;18.63;4.43;;;9.40;25.40;;;;;;5059330;28;20176;-80
2023/04/11 04:12:41;;;;;;;22.27;4.50;;;9.50;1.00;;;;;;5057620;28;20288;-80
2023/04/11 04:15:07;;;;;;;15.23;4.03;;;9.50;1.00;;;;;;5057719;28;20198;-80
2023/04/11 04:17:32;;;;;;;23.87;4.90;;;9.40;1.00;;;;;;5059395;28;20198;-80
2023/04/11 04:19:58;;;;;;;17.07;4.97;;;9.50;1.00;;;;;;5058103;28;20186;-80
2023/04/11 04:22:25;;;;;;;12.40;3.90;;;9.50;1.00;;;;;;5057879;28;20261;-80
2023/04/11 04:24:50;;;;;;;15.80;4.13;;;9.40;1.00;;;;;;5059085;28;20181;-80
2023/04/11 04:27:19;;;;;;;18.57;4.70;;;9.40;1.00;;;;;;5058265;28;20222;-80
2023/04/11 04:29:46;;;;;;;14.20;3.30;;;9.40;1.00;;;;;;5057036;28;20172;-79
2023/04/11 04:32:13;;;;;;;12.37;3.37;;;9.30;1.00;;;;;;5058666;28;20203;-80
2023/04/11 04:34:48;;;;;;;17.77;3.67;;;9.30;1.00;;;;;;5057346;28;20562;-81
2023/04/11 04:37:21;;;;;;;15.03;3.63;;;9.30;1.00;;;;;;5059328;28;20504;-80
2023/04/11 04:39:54;;;;;;;14.23;3.67;;;9.30;1.00;;;;;;5059234;28;20155;-80
2023/04/11 04:42:26;;;;;;;15.07;2.80;;;9.30;1.00;;;;;;5058727;28;20223;-79
2023/04/11 04:44:52;;;;;;;13.60;3.27;;;9.30;1.00;;;;;;5058914;28;20615;-79
2023/04/11 04:47:21;;;;;;;12.57;3.27;;;9.30;1.00;;;;;;5055937;28;20214;-79
2023/04/11 04:49:47;;;;;;;14.57;3.67;;;9.30;1.00;;;;;;5058307;28;20179;-79
2023/04/11 04:52:13;;;;;;;18.17;3.13;;;9.30;1.00;;;;;;5057430;28;20199;-79
2023/04/11 04:54:39;;;;;;;13.63;3.60;;;9.20;1.00;;;;;;5057963;28;20209;-79
2023/04/11 04:57:05;;;;;;;12.53;2.97;;;9.20;1.00;;;;;;5056073;28;20171;-79
2023/04/11 04:59:31;;;;;;;20.03;3.63;;;9.20;1.00;;;;;;5059199;28;20662;-80
2023/04/11 05:01:56;;;;;;;16.40;3.10;;;9.20;1.00;;;;;;5056964;28;20183;-80
2023/04/11 05:04:22;;;;;;;13.63;3.00;;;9.20;1.00;;;;;;5056677;28;20689;-79
2023/04/11 05:06:47;;;;;;;12.93;3.70;;;9.20;1.00;;;;;;5057084;28;20204;-79
2023/04/11 05:09:15;;;;;;;17.87;3.30;;;9.30;1.00;;;;;;5056835;28;20175;-78
2023/04/11 05:11:40;;;;;;;16.07;3.43;;;9.30;1.00;;;;;;5056275;28;20187;-79
2023/04/11 05:14:06;;;;;;;17.30;3.40;;;9.30;1.00;;;;;;5057985;28;20685;-78
2023/04/11 05:16:31;;;;;;;13.77;4.20;;;9.20;1.00;;;;;;5057976;28;20698;-80
2023/04/11 05:18:57;;;;;;;14.67;3.77;;;9.20;1.00;;;;;;5058715;28;20190;-79
2023/04/11 05:21:22;;;;;;;8.13;2.70;;;9.20;1.00;;;;;;5059405;28;20693;-80
2023/04/11 05:23:48;;;;;;;17.43;3.97;;;9.30;1.00;;;;;;5057907;28;20280;-80
2023/04/11 05:26:14;;;;;;;17.07;3.97;;;9.30;1.00;;;;;;5062345;28;20577;-79
2023/04/11 05:28:40;;;;;;;17.77;4.40;;;9.30;1.00;;;;;;5071951;28;20182;-79
2023/04/11 05:31:07;;;;;;;13.70;3.43;;;9.20;1.00;;;;;;5069822;28;20190;-78
2023/04/11 05:33:33;;;;;;;17.23;3.40;;;9.30;1.00;;;;;;5069800;28;20199;-79
2023/04/11 05:35:58;;;;;;;14.20;3.93;;;9.30;1.00;;;;;;5069685;28;20183;-80
2023/04/11 05:38:24;;;;;;;15.27;3.53;;;9.30;1.00;;;;;;5064283;28;20175;-79
2023/04/11 05:40:49;;;;;;;16.93;4.03;;;9.20;1.00;;;;;;5060092;28;20195;-79
2023/04/11 05:43:15;;;;;;;13.87;3.37;;;9.30;1.00;;;;;;5058264;28;20269;-79
2023/04/11 05:45:46;;;;;;;19.90;3.67;;;9.30;1.00;;;;;;5057505;28;20258;-80
2023/04/11 05:48:15;;;;;;;12.93;3.43;;;9.30;1.00;;;;;;5059553;28;20156;-79
2023/04/11 05:50:40;;;;;;;14.07;3.73;;;9.30;1.00;;;;;;5057064;28;20205;-79
2023/04/11 05:53:06;;;;;;;19.40;4.03;;;9.30;1.00;;;;;;5059000;28;20192;-79
2023/04/11 05:55:32;;;;;;;15.23;3.60;;;9.30;1.00;;;;;;5059483;28;20203;-80
2023/04/11 05:57:58;;;;;;;10.80;3.37;;;9.30;1.00;;;;;;5059016;28;20180;-79
2023/04/11 06:00:24;;;;;;;9.77;2.97;;;9.30;1.00;;;;;;5059055;28;20183;-80
2023/04/11 06:02:51;;;;;;;12.60;4.17;;;9.20;1.00;;;;;;5058962;28;20219;-79
2023/04/11 06:05:17;;;;;;;12.60;3.90;;;9.30;1.00;;;;;;5058869;28;20195;-79
2023/04/11 06:07:43;;;;;;;12.10;3.03;;;9.30;1.00;;;;;;5058414;28;20672;-80
2023/04/11 06:10:09;;;;;;;13.07;3.30;;;9.40;1.00;;;;;;5060825;28;20333;-79
2023/04/11 06:12:35;;;;;;;11.83;3.67;;;9.40;1.00;;;;;;5060916;28;20211;-80
2023/04/11 06:15:01;;;;;;;10.30;2.97;;;9.40;1.00;;;;;;5060880;28;20175;-79
2023/04/11 06:17:27;;;;;;;14.00;2.97;;;9.40;1.00;;;;;;5063285;28;20235;-79
2023/04/11 06:19:52;;;;;;;10.73;3.07;;;9.40;1.00;;;;;;5063048;28;20258;-80
2023/04/11 06:22:18;;;;;;;13.73;3.10;;;9.40;1.00;;;;;;5062648;28;20205;-79
2023/04/11 06:24:46;;;;;;;16.23;3.93;;;9.40;1.00;;;;;;5062511;28;20179;-78
2023/04/11 06:27:12;;;;;;;16.33;3.00;;;9.40;1.00;;;;;;5062010;28;20214;-79
2023/04/11 06:29:38;;;;;;;10.43;2.63;;;9.40;1.00;;;;;;5061595;28;20178;-80
2023/04/11 06:32:05;;;;;;;14.23;3.53;;;9.40;1.00;;;;;;5062183;28;20171;-79
2023/04/11 06:34:30;;;;;;;16.93;2.67;;;9.30;1.00;;;;;;5061364;28;20658;-79
2023/04/11 06:36:56;;;;;;;11.27;2.93;;;9.40;1.00;;;;;;5062224;28;20267;-80
2023/04/11 06:39:21;;;;;;;10.50;2.77;;;9.40;1.00;;;;;;5061253;28;20636;-80
2023/04/11 06:41:47;;;;;;;9.43;3.30;;;9.30;1.00;;;;;;5062287;28;20532;-79
2023/04/11 06:44:12;;;;;;;10.60;2.87;;;9.40;1.00;;;;;;5061394;28;20614;-79
2023/04/11 06:46:38;;;;;;;11.20;2.10;;;9.40;1.00;;;;;;5061079;28;20682;-79
2023/04/11 06:49:06;;;;;;;11.03;2.70;;;9.40;1.00;;;;;;5065768;28;20174;-79
2023/04/11 06:51:32;;;;;;;11.67;2.67;;;9.40;1.00;;;;;;5074969;28;20240;-80
2023/04/11 06:53:58;;;;;;;9.77;2.40;;;9.40;1.00;;;;;;5073910;28;20191;-79
2023/04/11 06:56:23;;;;;;;15.13;2.57;;;9.40;1.00;;;;;;5061729;28;20228;-80
2023/04/11 06:58:49;;;;;;;14.30;3.03;;;9.40;1.00;;;;;;5060721;28;20202;-79
2023/04/11 07:01:14;;;;;;;13.03;3.23;;;9.40;1.00;;;;;;5058910;28;20261;-80
2023/04/11 07:03:40;;;;;;;19.27;3.47;;;9.50;1.00;;;;;;5059163;28;20679;-80
2023/04/11 07:06:09;;;;;;;13.97;3.10;;;9.40;1.00;;;;;;5060647;28;20211;-80
2023/04/11 07:08:35;;;;;;;12.57;2.97;;;9.40;1.00;;;;;;5059008;28;20527;-79
2023/04/11 07:11:01;;;;;;;17.80;3.30;;;9.50;1.00;;;;;;5059963;28;20655;-81
2023/04/11 07:13:27;;;;;;;14.60;3.43;;;9.50;1.00;;;;;;5058605;28;20552;-80
2023/04/11 07:15:52;;;;;;;13.63;3.13;;;9.40;1.00;;;;;;5059042;28;20190;-79
2023/04/11 07:18:18;;;;;;;18.30;2.83;;;9.50;1.00;;;;;;5060489;28;20183;-79
2023/04/11 07:20:43;;;;;;;12.97;2.83;;;9.50;1.00;;;;;;5059503;28;20187;-80
2023/04/11 07:23:09;;;;;;;11.37;2.77;;;9.50;1.00;;;;;;5058806;28;20616;-79
2023/04/11 07:25:35;;;;;;;14.13;2.87;;;9.50;1.00;;;;;;5059619;28;20174;-80
2023/04/11 07:28:07;;;;;;;10.93;2.50;;;9.60;1.00;;;;;;5060674;28;20200;-79
2023/04/11 07:30:33;;;;;;;9.17;2.30;;;9.60;1.00;;;;;;5058104;28;20226;-80
2023/04/11 07:32:59;;;;;;;8.87;2.43;;;9.60;1.00;;;;;;5059342;28;20655;-79
2023/04/11 07:35:25;;;;;;;10.83;2.70;;;9.70;1.00;;;;;;5058693;28;20187;-80
2023/04/11 07:37:52;;;;;;;16.10;3.07;;;9.70;1.00;;;;;;5059980;28;20175;-80
2023/04/11 07:40:18;;;;;;;14.10;2.80;;;9.80;1.00;;;;;;5058117;28;20180;-79
2023/04/11 07:42:45;;;;;;;9.27;2.60;;;9.90;1.00;;;;;;5058828;28;20259;-80
2023/04/11 07:45:10;;;;;;;16.43;3.03;;;9.90;1.00;;;;;;5057383;28;20618;-79
2023/04/11 07:47:36;;;;;;;8.33;2.30;;;9.90;1.00;;;;;;5057983;28;20238;-79
2023/04/11 07:50:02;;;;;;;10.20;2.23;;;9.90;99.90;;;;;;5058340;28;20175;-79
2023/04/11 07:52:28;;;;;;;11.97;2.60;;;9.90;99.90;;;;;;5058236;28;20309;-80
2023/04/11 07:54:54;;;;;;;14.20;2.33;;;10.00;99.90;;;;;;5058209;28;20645;-79
2023/04/11 07:57:20;;;;;;;12.73;2.60;;;10.10;99.90;;;;;;5058925;28;20259;-80
2023/04/11 07:59:45;;;;;;;10.27;2.20;;;10.00;99.90;;;;;;5057742;28;20195;-81
2023/04/11 08:02:11;;;;;;;7.10;1.97;;;10.00;99.90;;;;;;5057822;28;20195;-80
2023/04/11 08:04:37;;;;;;;12.87;2.77;;;10.00;99.90;;;;;;5057863;28;20243;-80
2023/04/11 08:07:03;;;;;;;10.97;2.43;;;10.00;99.90;;;;;;5057208;28;20233;-80
2023/04/11 08:09:28;;;;;;;13.10;2.87;;;10.20;99.90;;;;;;5057985;28;20198;-82
2023/04/11 08:11:55;;;;;;;6.47;2.80;;;10.10;99.90;;;;;;5056772;28;20223;-80
2023/04/11 08:14:24;;;;;;;10.90;2.60;;;10.10;99.90;;;;;;5057450;28;20168;-80
2023/04/11 08:16:52;;;;;;;12.50;2.90;;;10.10;99.90;;;;;;5057904;28;20644;-81
2023/04/11 08:19:18;;;;;;;13.27;2.57;;;10.20;99.90;;;;;;5057313;28;20559;-81
2023/04/11 08:21:43;;;;;;;11.07;2.37;;;10.30;99.90;;;;;;5057297;28;20190;-80
2023/04/11 08:24:09;;;;;;;8.47;1.90;;;10.30;99.90;;;;;;5057528;28;20202;-79
2023/04/11 08:26:35;;;;;;;6.67;2.27;;;10.20;99.90;;;;;;5056814;28;20196;-81
2023/04/11 08:29:02;;;;;;;6.47;1.87;;;10.50;99.90;;;;;;5056763;28;20171;-80
2023/04/11 08:31:27;;;;;;;9.80;2.63;;;10.40;99.90;;;;;;5056812;28;20179;-81
2023/04/11 08:33:53;;;;;;;7.33;1.97;;;10.50;99.90;;;;;;5057176;28;20191;-80
2023/04/11 08:36:19;;;;;;;9.03;2.10;;;10.60;99.90;;;;;;5057897;28;20179;-80
2023/04/11 08:38:44;;;;;;;10.33;2.10;;;10.80;99.90;;;;;;5057442;28;20229;-80
2023/04/11 08:41:11;;;;;;;7.13;1.73;;;10.70;99.90;;;;;;5057235;28;20225;-80
2023/04/11 08:43:39;;;;;;;8.80;2.47;;;10.50;85.90;;;;;;5057292;28;20203;-79
2023/04/11 08:46:08;;;;;;;10.07;2.43;;;10.60;99.90;;;;;;5057140;28;20233;-80
2023/04/11 08:48:34;;;;;;;10.13;2.00;;;10.70;99.90;;;;;;5057203;28;20262;-80
2023/04/11 08:51:00;;;;;;;10.13;2.03;;;10.70;99.90;;;;;;5057778;28;20171;-80
2023/04/11 08:53:26;;;;;;;7.13;1.80;;;10.80;99.90;;;;;;5056789;28;20249;-81
2023/04/11 08:55:52;;;;;;;8.17;2.00;;;10.80;89.60;;;;;;5057753;28;20175;-80
2023/04/11 08:58:19;;;;;;;8.67;2.10;;;10.80;99.90;;;;;;5057641;28;20325;-80
2023/04/11 09:00:44;;;;;;;8.83;2.33;;;10.90;99.90;;;;;;5057171;28;20172;-81
2023/04/11 09:03:11;;;;;;;6.63;1.87;;;10.90;99.90;;;;;;5057397;28;20219;-80
2023/04/11 09:05:39;;;;;;;7.00;1.93;;;10.90;45.80;;;;;;5056974;28;20643;-81
2023/04/11 09:08:07;;;;;;;8.53;2.17;;;10.90;1.00;;;;;;5056766;28;20285;-80
2023/04/11 09:10:34;;;;;;;5.47;2.00;;;10.90;1.00;;;;;;5057529;28;20618;-80
2023/04/11 09:13:01;;;;;;;6.67;1.57;;;10.90;1.00;;;;;;5057557;28;20232;-80
2023/04/11 09:15:29;;;;;;;6.90;1.53;;;11.00;1.00;;;;;;5057715;28;20651;-80
2023/04/11 09:17:55;;;;;;;8.73;2.03;;;11.00;1.00;;;;;;5057443;28;20179;-80
2023/04/11 09:20:29;;;;;;;8.23;2.03;;;11.10;1.00;;;;;;5057399;28;20715;-80
2023/04/11 09:22:55;;;;;;;9.13;1.77;;;11.00;1.00;;;;;;5057493;28;20228;-80
2023/04/11 09:25:22;;;;;;;9.20;2.37;;;11.00;1.00;;;;;;5057696;28;20647;-80
2023/04/11 09:27:49;;;;;;;5.57;1.87;;;11.00;1.00;;;;;;5057373;28;20206;-80
2023/04/11 09:30:25;;;;;;;7.33;1.60;;;11.10;1.00;;;;;;5058851;28;20171;-80
2023/04/11 09:32:53;;;;;;;6.23;1.97;;;11.30;1.00;;;;;;5057944;28;20191;-81
2023/04/11 09:35:22;;;;;;;8.40;1.93;;;11.30;1.00;;;;;;5057752;28;20218;-80
2023/04/11 09:37:52;;;;;;;6.80;1.73;;;11.40;1.00;;;;;;5057956;28;20257;-79
2023/04/11 09:40:26;;;;;;;7.10;2.27;;;11.40;1.00;;;;;;5057306;28;20180;-80
2023/04/11 09:43:10;;;;;;;7.40;2.03;;;11.60;1.00;;;;;;5059140;28;20282;-80
2023/04/11 09:45:36;;;;;;;8.63;2.20;;;11.60;1.00;;;;;;5063653;28;20156;-79
2023/04/11 09:48:02;;;;;;;11.90;2.67;;;11.70;1.00;;;;;;5062284;28;20241;-80
2023/04/11 09:50:28;;;;;;;8.53;2.13;;;11.60;1.00;;;;;;5062760;28;20263;-80
2023/04/11 09:52:56;;;;;;;10.43;3.00;;;11.60;1.00;;;;;;5062237;28;20219;-79
2023/04/11 09:55:23;;;;;;;6.60;2.70;;;11.60;1.00;;;;;;5062269;28;20190;-79
2023/04/11 09:57:51;;;;;;;5.57;2.20;;;11.50;1.00;;;;;;5063403;28;20271;-81
2023/04/11 10:00:28;;;;;;;8.70;2.03;;;11.40;1.00;;;;;;5063619;28;20266;-80
2023/04/11 10:02:54;;;;;;;7.60;2.03;;;11.20;99.90;;;;;;5065569;28;20187;-81
2023/04/11 10:05:27;;;;;;;4.53;1.83;;;11.20;99.90;;;;;;5066741;28;20183;-81
2023/04/11 10:08:31;;;;;;;3.17;1.83;;;11.30;1.00;;;;;;5079878;28;20221;-80
2023/04/11 10:10:58;;;;;;;5.50;1.70;;;11.30;99.90;;;;;;5073136;28;20195;-81
2023/04/11 10:13:41;;;;;;;4.43;1.80;;;11.50;99.90;;;;;;5063391;28;20233;-80
2023/04/11 10:16:13;;;;;;;4.90;1.80;;;11.60;99.90;;;;;;5063089;28;20160;-81
2023/04/11 10:19:00;;;;;;;7.37;2.13;;;11.40;99.90;;;;;;5061545;28;20290;-80
2023/04/11 10:21:29;;;;;;;6.60;1.80;;;11.40;99.90;;;;;;5058839;28;20245;-80
2023/04/11 10:24:10;;;;;;;11.17;2.43;;;11.50;1.00;;;;;;5062352;28;20191;-79
2023/04/11 10:27:03;;;;;;;8.87;2.17;;;11.60;1.00;;;;;;5060408;28;20203;-80
2023/04/11 10:29:29;;;;;;;6.63;2.53;;;11.70;1.00;;;;;;5059297;28;20183;-80
2023/04/11 10:32:20;;;;;;;5.27;1.83;;;11.70;99.90;;;;;;5060655;28;20233;-80
2023/04/11 10:34:49;;;;;;;7.30;1.87;;;11.90;99.90;;;;;;5061983;28;20182;-81
2023/04/11 10:37:18;;;;;;;7.10;1.70;;;11.90;99.90;;;;;;5061849;28;20183;-80
2023/04/11 10:39:49;;;;;;;5.47;1.77;;;12.00;99.90;;;;;;5062210;28;20175;-80
2023/04/11 10:42:37;;;;;;;6.03;2.30;;;12.10;99.90;;;;;;5060329;28;20591;-81
2023/04/11 10:45:18;;;;;;;5.90;1.80;;;12.30;99.90;;;;;;5061726;28;20199;-80
2023/04/11 10:47:59;;;;;;;4.77;2.03;;;12.30;99.90;;;;;;5062456;28;20224;-80
2023/04/11 10:50:24;;;;;;;6.43;1.60;;;12.20;99.90;;;;;;5061755;28;20198;-81
2023/04/11 10:52:51;;;;;;;5.03;1.70;;;12.20;1.00;;;;;;5060096;28;20191;-81
2023/04/11 10:55:17;;;;;;;6.47;1.70;;;12.20;1.00;;;;;;5060996;28;20168;-80
2023/04/11 10:58:15;;;;;;;8.13;1.63;;;12.20;1.00;;;;;;5059266;28;20187;-80
2023/04/11 11:00:48;;;;;;;6.90;2.13;;;12.30;99.90;;;;;;5058986;28;20737;-81
2023/04/11 11:03:25;;;;;;;5.13;1.87;;;12.50;1.00;;;;;;5059289;28;20337;-80
2023/04/11 11:06:01;;;;;;;6.63;2.00;;;12.40;1.00;;;;;;5061269;28;20171;-80
2023/04/11 11:08:32;;;;;;;7.23;2.00;;;12.50;26.40;;;;;;5059438;28;20317;-81
2023/04/11 11:11:05;;;;;;;10.50;2.40;;;12.70;99.90;;;;;;5059351;28;20183;-81
2023/04/11 11:13:38;;;;;;;5.43;2.17;;;12.80;99.90;;;;;;5060322;28;20184;-80
2023/04/11 11:16:06;;;;;;;4.90;2.00;;;12.90;99.90;;;;;;5059780;28;20251;-80
2023/04/11 11:18:32;;;;;;;5.67;1.70;;;12.90;1.00;;;;;;5058895;28;20172;-80
2023/04/11 11:20:57;;;;;;;6.13;2.00;;;13.00;91.10;;;;;;5059052;28;20643;-80
2023/04/11 11:23:23;;;;;;;4.33;1.83;;;13.10;1.00;;;;;;5060478;28;20253;-80
2023/04/11 11:25:56;;;;;;;4.33;1.90;;;13.10;1.00;;;;;;5060659;28;20655;-81
2023/04/11 11:28:22;;;;;;;6.40;2.17;;;13.00;99.90;;;;;;5058924;28;20225;-79
2023/04/11 11:30:53;;;;;;;7.83;1.60;;;12.90;99.90;;;;;;5061307;28;20168;-81
2023/04/11 11:33:20;;;;;;;4.77;1.70;;;12.90;99.90;;;;;;5060398;28;20179;-80
2023/04/11 11:36:03;;;;;;;6.30;2.07;;;12.90;99.90;;;;;;5058498;28;20267;-80
2023/04/11 11:38:29;;;;;;;4.40;1.60;;;13.10;99.90;;;;;;5060349;28;20159;-80
2023/04/11 11:40:56;;;;;;;8.80;2.07;;;13.20;99.90;;;;;;5059009;28;20175;-80
2023/04/11 11:43:24;;;;;;;5.33;1.50;;;13.10;99.90;;;;;;5058713;28;20199;-79
2023/04/11 11:46:28;;;;;;;5.20;1.50;;;13.20;99.90;;;;;;5058759;28;20171;-80
2023/04/11 11:48:58;;;;;;;4.53;1.43;;;13.20;1.00;;;;;;5037671;28;20227;-80
2023/04/11 11:51:23;;;;;;;3.87;1.43;;;13.20;1.00;;;;;;5056936;28;20206;-81
2023/04/11 11:54:15;;;;;;;4.40;1.30;;;13.30;92.60;;;;;;5059868;28;20218;-80
2023/04/11 11:56:49;;;;;;;6.83;1.87;;;13.40;99.90;;;;;;5058846;28;20191;-80
2023/04/11 11:59:26;;;;;;;4.10;1.40;;;13.50;1.00;;;;;;5059838;28;20163;-79
2023/04/11 12:01:52;;;;;;;3.13;1.40;;;13.30;90.30;;;;;;5058180;28;20225;-80
2023/04/11 12:04:19;;;;;;;4.43;1.30;;;13.30;1.00;;;;;;5057955;28;20175;-80
2023/04/11 12:06:44;;;;;;;5.33;1.97;;;13.30;1.00;;;;;;5056988;28;20554;-80
2023/04/11 12:09:11;;;;;;;7.33;1.93;;;13.30;95.40;;;;;;5057817;28;20202;-79
2023/04/11 12:11:42;;;;;;;3.97;1.70;;;13.30;1.00;;;;;;5057236;28;20306;-79
2023/04/11 12:14:08;;;;;;;7.90;1.60;;;13.30;99.90;;;;;;5058952;28;20190;-80
2023/04/11 12:16:37;;;;;;;7.57;1.40;;;13.40;99.90;;;;;;5057946;28;20186;-81
2023/04/11 12:19:03;;;;;;;2.93;1.13;;;13.50;42.20;;;;;;5057838;28;20172;-80
2023/04/11 12:21:30;;;;;;;4.93;1.53;;;13.50;99.90;;;;;;5058708;28;20176;-80
2023/04/11 12:23:56;;;;;;;4.63;1.60;;;13.30;1.00;;;;;;5059309;28;20561;-80
2023/04/11 12:26:23;;;;;;;6.30;1.77;;;13.30;74.00;;;;;;5057810;28;20199;-80
2023/04/11 12:28:49;;;;;;;3.93;1.50;;;13.30;1.00;;;;;;5058518;28;20179;-79
2023/04/11 12:31:16;;;;;;;6.70;1.97;;;13.30;16.90;;;;;;5057898;28;20172;-80
2023/04/11 12:33:41;;;;;;;3.70;1.30;;;13.40;99.90;;;;;;5059035;28;20192;-80
2023/04/11 12:36:07;;;;;;;6.07;1.77;;;13.50;1.00;;;;;;5057814;28;20230;-80
2023/04/11 12:38:33;;;;;;;4.03;1.60;;;13.60;99.90;;;;;;5057459;28;20507;-79
2023/04/11 12:40:59;;;;;;;5.73;1.60;;;13.80;1.00;;;;;;5059808;28;20309;-80
2023/04/11 12:43:25;;;;;;;6.80;1.37;;;13.90;1.00;;;;;;5059836;28;20287;-81
2023/04/11 12:45:51;;;;;;;5.63;1.33;;;14.00;1.00;;;;;;5057579;28;20211;-80
2023/04/11 12:48:16;;;;;;;5.47;1.53;;;14.00;99.90;;;;;;5059042;28;20168;-81
2023/04/11 12:50:42;;;;;;;2.73;1.10;;;14.00;6.40;;;;;;5059665;28;20198;-79
2023/04/11 12:53:07;;;;;;;4.30;1.10;;;14.00;1.00;;;;;;5058547;28;20195;-80